sensor_id;sensor_type;location;lat;lon;timestamp;P1;durP1;ratioP1;P2;durP2;ratioP2
12675;SDS011;63820;65.654;21.944;2022-11-15T00:00:26;2.73;;;0.60;;
12675;SDS011;63820;65.654;21.944;2022-11-15T00:03:12;2.97;;;0.90;;
12675;SDS011;63820;65.654;21.944;2022-11-15T00:06:03;2.10;;;0.60;;
12675;SDS011;63820;65.654;21.944;2022-11-15T00:08:48;1.93;;;0.90;;
12675;SDS011;63820;65.654;21.944;2022-11-15T00:11:32;0.90;;;0.70;;
12675;SDS011;63820;65.654;21.944;2022-11-15T00:14:16;1.17;;;0.57;;
12675;SDS011;63820;65.654;21.944;2022-11-15T00:17:00;0.70;;;0.50;;
12675;SDS011;63820;65.654;21.944;2022-11-15T00:19:43;2.67;;;0.73;;
12675;SDS011;63820;65.654;21.944;2022-11-15T00:22:32;2.87;;;0.50;;
12675;SDS011;63820;65.654;21.944;2022-11-15T00:25:17;4.13;;;0.90;;
12675;SDS011;63820;65.654;21.944;2022-11-15T00:28:01;1.87;;;0.80;;
12675;SDS011;63820;65.654;21.944;2022-11-15T00:30:46;1.37;;;0.80;;
12675;SDS011;63820;65.654;21.944;2022-11-15T00:33:30;1.20;;;0.60;;
12675;SDS011;63820;65.654;21.944;2022-11-15T00:36:14;1.40;;;0.70;;
12675;SDS011;63820;65.654;21.944;2022-11-15T00:38:58;1.37;;;0.60;;
12675;SDS011;63820;65.654;21.944;2022-11-15T00:41:42;2.77;;;0.70;;
12675;SDS011;63820;65.654;21.944;2022-11-15T00:44:25;2.87;;;0.70;;
12675;SDS011;63820;65.654;21.944;2022-11-15T00:47:09;1.63;;;0.77;;
12675;SDS011;63820;65.654;21.944;2022-11-15T00:49:53;1.00;;;0.50;;
12675;SDS011;63820;65.654;21.944;2022-11-15T00:52:37;1.20;;;0.50;;
12675;SDS011;63820;65.654;21.944;2022-11-15T00:55:21;0.83;;;0.50;;
12675;SDS011;63820;65.654;21.944;2022-11-15T00:58:05;3.83;;;0.67;;
12675;SDS011;63820;65.654;21.944;2022-11-15T01:00:49;3.43;;;0.60;;
12675;SDS011;63820;65.654;21.944;2022-11-15T01:03:34;1.83;;;0.60;;
12675;SDS011;63820;65.654;21.944;2022-11-15T01:06:18;1.00;;;0.60;;
12675;SDS011;63820;65.654;21.944;2022-11-15T01:09:02;2.77;;;0.53;;
12675;SDS011;63820;65.654;21.944;2022-11-15T01:11:47;3.37;;;0.60;;
12675;SDS011;63820;65.654;21.944;2022-11-15T01:14:31;1.83;;;0.57;;
12675;SDS011;63820;65.654;21.944;2022-11-15T01:17:15;4.90;;;0.90;;
12675;SDS011;63820;65.654;21.944;2022-11-15T01:19:59;2.53;;;0.60;;
12675;SDS011;63820;65.654;21.944;2022-11-15T01:22:43;1.97;;;0.70;;
12675;SDS011;63820;65.654;21.944;2022-11-15T01:25:27;1.27;;;0.60;;
12675;SDS011;63820;65.654;21.944;2022-11-15T01:28:11;4.00;;;1.00;;
12675;SDS011;63820;65.654;21.944;2022-11-15T01:30:57;1.50;;;0.67;;
12675;SDS011;63820;65.654;21.944;2022-11-15T01:33:42;0.93;;;0.40;;
12675;SDS011;63820;65.654;21.944;2022-11-15T01:36:27;1.60;;;0.70;;
12675;SDS011;63820;65.654;21.944;2022-11-15T01:39:11;1.87;;;0.50;;
12675;SDS011;63820;65.654;21.944;2022-11-15T01:41:55;1.47;;;0.40;;
12675;SDS011;63820;65.654;21.944;2022-11-15T01:44:48;4.07;;;0.80;;
12675;SDS011;63820;65.654;21.944;2022-11-15T01:47:35;1.30;;;0.60;;
12675;SDS011;63820;65.654;21.944;2022-11-15T01:50:25;0.97;;;0.60;;
12675;SDS011;63820;65.654;21.944;2022-11-15T01:53:13;0.70;;;0.60;;
12675;SDS011;63820;65.654;21.944;2022-11-15T01:55:59;0.73;;;0.70;;
12675;SDS011;63820;65.654;21.944;2022-11-15T01:58:50;2.90;;;0.70;;
12675;SDS011;63820;65.654;21.944;2022-11-15T02:01:36;1.40;;;0.80;;
12675;SDS011;63820;65.654;21.944;2022-11-15T02:04:41;1.67;;;0.60;;
12675;SDS011;63820;65.654;21.944;2022-11-15T02:07:34;1.50;;;0.60;;
12675;SDS011;63820;65.654;21.944;2022-11-15T02:10:20;3.23;;;0.70;;
12675;SDS011;63820;65.654;21.944;2022-11-15T02:13:06;1.93;;;0.60;;
12675;SDS011;63820;65.654;21.944;2022-11-15T02:31:25;1.07;;;0.73;;
12675;SDS011;63820;65.654;21.944;2022-11-15T02:34:24;2.07;;;0.60;;
12675;SDS011;63820;65.654;21.944;2022-11-15T02:37:21;1.43;;;0.60;;
12675;SDS011;63820;65.654;21.944;2022-11-15T02:40:26;1.40;;;0.57;;
12675;SDS011;63820;65.654;21.944;2022-11-15T02:43:12;1.27;;;0.60;;
12675;SDS011;63820;65.654;21.944;2022-11-15T02:49:48;1.67;;;0.57;;
12675;SDS011;63820;65.654;21.944;2022-11-15T02:52:37;0.70;;;0.50;;
12675;SDS011;63820;65.654;21.944;2022-11-15T03:04:58;0.93;;;0.50;;
12675;SDS011;63820;65.654;21.944;2022-11-15T03:08:06;1.40;;;0.60;;
12675;SDS011;63820;65.654;21.944;2022-11-15T03:10:56;0.87;;;0.50;;
12675;SDS011;63820;65.654;21.944;2022-11-15T03:17:18;1.77;;;0.70;;
12675;SDS011;63820;65.654;21.944;2022-11-15T03:20:09;1.00;;;0.60;;
12675;SDS011;63820;65.654;21.944;2022-11-15T03:23:00;0.67;;;0.50;;
12675;SDS011;63820;65.654;21.944;2022-11-15T03:25:48;2.43;;;0.60;;
12675;SDS011;63820;65.654;21.944;2022-11-15T03:31:50;1.87;;;0.60;;
12675;SDS011;63820;65.654;21.944;2022-11-15T03:34:41;2.17;;;0.80;;
12675;SDS011;63820;65.654;21.944;2022-11-15T03:40:39;1.17;;;0.50;;
12675;SDS011;63820;65.654;21.944;2022-11-15T03:46:33;0.60;;;0.50;;
12675;SDS011;63820;65.654;21.944;2022-11-15T03:49:31;1.43;;;0.40;;
12675;SDS011;63820;65.654;21.944;2022-11-15T03:52:18;1.13;;;0.50;;
12675;SDS011;63820;65.654;21.944;2022-11-15T03:55:05;1.17;;;0.40;;
12675;SDS011;63820;65.654;21.944;2022-11-15T03:57:53;1.13;;;0.40;;
12675;SDS011;63820;65.654;21.944;2022-11-15T04:00:40;1.57;;;0.50;;
12675;SDS011;63820;65.654;21.944;2022-11-15T04:03:24;1.90;;;0.50;;
12675;SDS011;63820;65.654;21.944;2022-11-15T04:06:09;1.30;;;0.40;;
12675;SDS011;63820;65.654;21.944;2022-11-15T04:08:52;0.90;;;0.50;;
12675;SDS011;63820;65.654;21.944;2022-11-15T04:11:36;0.70;;;0.50;;
12675;SDS011;63820;65.654;21.944;2022-11-15T04:14:21;0.77;;;0.30;;
12675;SDS011;63820;65.654;21.944;2022-11-15T04:17:05;2.20;;;0.30;;
12675;SDS011;63820;65.654;21.944;2022-11-15T04:19:48;0.43;;;0.30;;
12675;SDS011;63820;65.654;21.944;2022-11-15T04:22:52;1.10;;;0.40;;
12675;SDS011;63820;65.654;21.944;2022-11-15T04:25:56;0.90;;;0.60;;
12675;SDS011;63820;65.654;21.944;2022-11-15T04:28:43;1.20;;;0.80;;
12675;SDS011;63820;65.654;21.944;2022-11-15T04:31:46;1.27;;;1.00;;
12675;SDS011;63820;65.654;21.944;2022-11-15T04:34:30;1.33;;;1.10;;
12675;SDS011;63820;65.654;21.944;2022-11-15T04:37:14;1.47;;;0.70;;
12675;SDS011;63820;65.654;21.944;2022-11-15T04:39:59;2.60;;;0.57;;
12675;SDS011;63820;65.654;21.944;2022-11-15T04:42:44;0.67;;;0.60;;
12675;SDS011;63820;65.654;21.944;2022-11-15T04:45:28;1.60;;;0.50;;
12675;SDS011;63820;65.654;21.944;2022-11-15T04:48:12;0.43;;;0.40;;
12675;SDS011;63820;65.654;21.944;2022-11-15T04:50:56;1.00;;;0.63;;
12675;SDS011;63820;65.654;21.944;2022-11-15T04:53:40;0.30;;;0.30;;
12675;SDS011;63820;65.654;21.944;2022-11-15T04:56:24;1.17;;;0.30;;
12675;SDS011;63820;65.654;21.944;2022-11-15T04:59:08;0.47;;;0.40;;
12675;SDS011;63820;65.654;21.944;2022-11-15T05:01:52;1.00;;;0.50;;
12675;SDS011;63820;65.654;21.944;2022-11-15T05:04:36;1.00;;;0.67;;
12675;SDS011;63820;65.654;21.944;2022-11-15T05:07:20;2.00;;;0.47;;
12675;SDS011;63820;65.654;21.944;2022-11-15T05:10:04;0.80;;;0.50;;
12675;SDS011;63820;65.654;21.944;2022-11-15T05:12:48;0.70;;;0.40;;
12675;SDS011;63820;65.654;21.944;2022-11-15T05:15:33;0.80;;;0.50;;
12675;SDS011;63820;65.654;21.944;2022-11-15T05:18:17;0.40;;;0.40;;
12675;SDS011;63820;65.654;21.944;2022-11-15T05:21:04;1.90;;;0.50;;
12675;SDS011;63820;65.654;21.944;2022-11-15T05:23:49;1.10;;;0.40;;
12675;SDS011;63820;65.654;21.944;2022-11-15T05:26:33;0.80;;;0.40;;
12675;SDS011;63820;65.654;21.944;2022-11-15T05:29:17;0.73;;;0.40;;
12675;SDS011;63820;65.654;21.944;2022-11-15T05:32:03;0.63;;;0.50;;
12675;SDS011;63820;65.654;21.944;2022-11-15T05:34:49;0.93;;;0.50;;
12675;SDS011;63820;65.654;21.944;2022-11-15T05:37:33;0.60;;;0.50;;
12675;SDS011;63820;65.654;21.944;2022-11-15T05:40:18;4.70;;;0.70;;
12675;SDS011;63820;65.654;21.944;2022-11-15T05:43:02;1.80;;;0.90;;
12675;SDS011;63820;65.654;21.944;2022-11-15T05:45:48;0.70;;;0.70;;
12675;SDS011;63820;65.654;21.944;2022-11-15T05:48:34;0.77;;;0.60;;
12675;SDS011;63820;65.654;21.944;2022-11-15T05:51:20;1.17;;;0.60;;
12675;SDS011;63820;65.654;21.944;2022-11-15T05:54:06;0.50;;;0.50;;
12675;SDS011;63820;65.654;21.944;2022-11-15T05:56:51;0.50;;;0.40;;
12675;SDS011;63820;65.654;21.944;2022-11-15T05:59:36;4.30;;;0.60;;
12675;SDS011;63820;65.654;21.944;2022-11-15T06:02:21;0.83;;;0.40;;
12675;SDS011;63820;65.654;21.944;2022-11-15T06:05:05;0.80;;;0.50;;
12675;SDS011;63820;65.654;21.944;2022-11-15T06:07:49;0.40;;;0.40;;
12675;SDS011;63820;65.654;21.944;2022-11-15T06:10:33;1.13;;;0.70;;
12675;SDS011;63820;65.654;21.944;2022-11-15T06:13:17;1.43;;;0.40;;
12675;SDS011;63820;65.654;21.944;2022-11-15T06:16:01;0.53;;;0.40;;
12675;SDS011;63820;65.654;21.944;2022-11-15T06:18:45;0.50;;;0.40;;
12675;SDS011;63820;65.654;21.944;2022-11-15T06:21:29;0.63;;;0.47;;
12675;SDS011;63820;65.654;21.944;2022-11-15T06:24:13;1.53;;;0.30;;
12675;SDS011;63820;65.654;21.944;2022-11-15T06:26:57;0.53;;;0.50;;
12675;SDS011;63820;65.654;21.944;2022-11-15T06:29:42;2.50;;;0.73;;
12675;SDS011;63820;65.654;21.944;2022-11-15T06:32:26;0.80;;;0.70;;
12675;SDS011;63820;65.654;21.944;2022-11-15T06:35:12;1.33;;;0.80;;
12675;SDS011;63820;65.654;21.944;2022-11-15T06:38:01;1.33;;;0.90;;
12675;SDS011;63820;65.654;21.944;2022-11-15T06:40:47;1.70;;;1.40;;
12675;SDS011;63820;65.654;21.944;2022-11-15T06:43:31;3.53;;;1.20;;
12675;SDS011;63820;65.654;21.944;2022-11-15T06:46:16;1.13;;;0.97;;
12675;SDS011;63820;65.654;21.944;2022-11-15T06:48:59;4.10;;;1.10;;
12675;SDS011;63820;65.654;21.944;2022-11-15T06:51:43;9.07;;;6.07;;
12675;SDS011;63820;65.654;21.944;2022-11-15T06:54:27;10.50;;;9.50;;
12675;SDS011;63820;65.654;21.944;2022-11-15T06:57:11;5.83;;;5.33;;
12675;SDS011;63820;65.654;21.944;2022-11-15T06:59:55;23.70;;;18.90;;
12675;SDS011;63820;65.654;21.944;2022-11-15T07:02:39;14.00;;;10.77;;
12675;SDS011;63820;65.654;21.944;2022-11-15T07:05:23;11.23;;;8.57;;
12675;SDS011;63820;65.654;21.944;2022-11-15T07:08:07;10.47;;;9.40;;
12675;SDS011;63820;65.654;21.944;2022-11-15T07:10:52;19.97;;;17.80;;
12675;SDS011;63820;65.654;21.944;2022-11-15T07:13:36;7.67;;;6.20;;
12675;SDS011;63820;65.654;21.944;2022-11-15T07:16:20;9.93;;;6.07;;
12675;SDS011;63820;65.654;21.944;2022-11-15T07:19:05;2.63;;;1.97;;
12675;SDS011;63820;65.654;21.944;2022-11-15T07:21:48;2.73;;;1.67;;
12675;SDS011;63820;65.654;21.944;2022-11-15T07:24:32;2.10;;;1.70;;
12675;SDS011;63820;65.654;21.944;2022-11-15T07:27:16;1.97;;;1.23;;
12675;SDS011;63820;65.654;21.944;2022-11-15T07:30:00;1.23;;;1.00;;
12675;SDS011;63820;65.654;21.944;2022-11-15T07:32:45;2.97;;;1.40;;
12675;SDS011;63820;65.654;21.944;2022-11-15T07:35:30;1.50;;;0.90;;
12675;SDS011;63820;65.654;21.944;2022-11-15T07:38:14;1.20;;;0.70;;
12675;SDS011;63820;65.654;21.944;2022-11-15T07:41:00;0.80;;;0.80;;
12675;SDS011;63820;65.654;21.944;2022-11-15T07:43:46;5.00;;;3.20;;
12675;SDS011;63820;65.654;21.944;2022-11-15T07:46:30;3.00;;;2.63;;
12675;SDS011;63820;65.654;21.944;2022-11-15T07:49:15;2.27;;;1.53;;
12675;SDS011;63820;65.654;21.944;2022-11-15T07:51:59;1.33;;;1.20;;
12675;SDS011;63820;65.654;21.944;2022-11-15T07:54:43;3.90;;;0.80;;
12675;SDS011;63820;65.654;21.944;2022-11-15T07:57:27;0.80;;;0.80;;
12675;SDS011;63820;65.654;21.944;2022-11-15T08:00:11;2.53;;;0.70;;
12675;SDS011;63820;65.654;21.944;2022-11-15T08:05:49;0.70;;;0.57;;
12675;SDS011;63820;65.654;21.944;2022-11-15T08:08:34;1.33;;;0.50;;
12675;SDS011;63820;65.654;21.944;2022-11-15T08:11:18;1.30;;;0.60;;
12675;SDS011;63820;65.654;21.944;2022-11-15T08:14:03;1.00;;;0.80;;
12675;SDS011;63820;65.654;21.944;2022-11-15T08:16:47;0.90;;;0.40;;
12675;SDS011;63820;65.654;21.944;2022-11-15T08:19:31;0.77;;;0.47;;
12675;SDS011;63820;65.654;21.944;2022-11-15T08:22:16;1.27;;;0.53;;
12675;SDS011;63820;65.654;21.944;2022-11-15T08:25:00;1.07;;;0.30;;
12675;SDS011;63820;65.654;21.944;2022-11-15T08:27:44;1.60;;;0.50;;
12675;SDS011;63820;65.654;21.944;2022-11-15T08:30:29;2.43;;;0.60;;
12675;SDS011;63820;65.654;21.944;2022-11-15T08:33:13;0.97;;;0.70;;
12675;SDS011;63820;65.654;21.944;2022-11-15T08:35:58;1.17;;;0.60;;
12675;SDS011;63820;65.654;21.944;2022-11-15T08:38:44;0.50;;;0.47;;
12675;SDS011;63820;65.654;21.944;2022-11-15T08:41:30;2.50;;;0.57;;
12675;SDS011;63820;65.654;21.944;2022-11-15T08:44:16;1.03;;;0.40;;
12675;SDS011;63820;65.654;21.944;2022-11-15T08:47:00;1.03;;;0.60;;
12675;SDS011;63820;65.654;21.944;2022-11-15T08:49:44;1.10;;;0.63;;
12675;SDS011;63820;65.654;21.944;2022-11-15T08:52:28;1.30;;;1.10;;
12675;SDS011;63820;65.654;21.944;2022-11-15T08:55:12;1.47;;;1.00;;
12675;SDS011;63820;65.654;21.944;2022-11-15T08:57:57;1.83;;;1.07;;
12675;SDS011;63820;65.654;21.944;2022-11-15T09:00:41;2.40;;;1.70;;
12675;SDS011;63820;65.654;21.944;2022-11-15T09:03:25;1.67;;;0.80;;
12675;SDS011;63820;65.654;21.944;2022-11-15T09:06:09;3.90;;;0.73;;
12675;SDS011;63820;65.654;21.944;2022-11-15T09:08:53;0.60;;;0.60;;
12675;SDS011;63820;65.654;21.944;2022-11-15T09:11:37;0.70;;;0.70;;
12675;SDS011;63820;65.654;21.944;2022-11-15T09:14:21;1.43;;;0.50;;
12675;SDS011;63820;65.654;21.944;2022-11-15T09:17:08;4.40;;;1.20;;
12675;SDS011;63820;65.654;21.944;2022-11-15T09:19:53;3.37;;;0.70;;
12675;SDS011;63820;65.654;21.944;2022-11-15T09:22:37;5.93;;;0.90;;
12675;SDS011;63820;65.654;21.944;2022-11-15T09:25:22;4.10;;;0.67;;
12675;SDS011;63820;65.654;21.944;2022-11-15T09:28:07;7.13;;;0.90;;
12675;SDS011;63820;65.654;21.944;2022-11-15T09:30:55;2.00;;;0.63;;
12675;SDS011;63820;65.654;21.944;2022-11-15T09:33:42;1.50;;;0.67;;
12675;SDS011;63820;65.654;21.944;2022-11-15T09:36:27;1.17;;;0.47;;
12675;SDS011;63820;65.654;21.944;2022-11-15T09:39:12;1.07;;;0.50;;
12675;SDS011;63820;65.654;21.944;2022-11-15T09:50:57;0.97;;;0.67;;
12675;SDS011;63820;65.654;21.944;2022-11-15T09:57:11;1.97;;;0.63;;
12675;SDS011;63820;65.654;21.944;2022-11-15T10:00:04;1.83;;;0.40;;
12675;SDS011;63820;65.654;21.944;2022-11-15T10:05:48;0.70;;;0.60;;
12675;SDS011;63820;65.654;21.944;2022-11-15T10:08:46;0.93;;;0.43;;
12675;SDS011;63820;65.654;21.944;2022-11-15T10:11:33;0.47;;;0.47;;
12675;SDS011;63820;65.654;21.944;2022-11-15T10:14:24;1.00;;;0.60;;
12675;SDS011;63820;65.654;21.944;2022-11-15T10:20:42;1.07;;;0.53;;
12675;SDS011;63820;65.654;21.944;2022-11-15T10:23:30;0.80;;;0.60;;
12675;SDS011;63820;65.654;21.944;2022-11-15T10:26:16;0.70;;;0.70;;
12675;SDS011;63820;65.654;21.944;2022-11-15T10:29:00;2.00;;;0.80;;
12675;SDS011;63820;65.654;21.944;2022-11-15T10:31:44;6.80;;;3.87;;
12675;SDS011;63820;65.654;21.944;2022-11-15T10:34:28;12.13;;;7.17;;
12675;SDS011;63820;65.654;21.944;2022-11-15T10:37:12;19.53;;;10.67;;
12675;SDS011;63820;65.654;21.944;2022-11-15T10:40:06;5.17;;;3.13;;
12675;SDS011;63820;65.654;21.944;2022-11-15T10:43:17;11.03;;;10.03;;
12675;SDS011;63820;65.654;21.944;2022-11-15T10:46:16;5.70;;;5.20;;
12675;SDS011;63820;65.654;21.944;2022-11-15T10:49:13;4.77;;;3.77;;
12675;SDS011;63820;65.654;21.944;2022-11-15T10:57:50;5.30;;;4.77;;
12675;SDS011;63820;65.654;21.944;2022-11-15T11:00:37;3.37;;;2.47;;
12675;SDS011;63820;65.654;21.944;2022-11-15T11:03:31;8.17;;;6.03;;
12675;SDS011;63820;65.654;21.944;2022-11-15T11:06:19;4.47;;;3.53;;
12675;SDS011;63820;65.654;21.944;2022-11-15T11:09:03;4.33;;;3.87;;
12675;SDS011;63820;65.654;21.944;2022-11-15T11:11:50;6.73;;;3.90;;
12675;SDS011;63820;65.654;21.944;2022-11-15T11:14:37;3.53;;;2.27;;
12675;SDS011;63820;65.654;21.944;2022-11-15T11:20:33;3.23;;;2.17;;
12675;SDS011;63820;65.654;21.944;2022-11-15T11:35:12;2.00;;;0.87;;
12675;SDS011;63820;65.654;21.944;2022-11-15T11:38:17;1.13;;;0.70;;
12675;SDS011;63820;65.654;21.944;2022-11-15T11:44:28;3.23;;;1.33;;
12675;SDS011;63820;65.654;21.944;2022-11-15T11:47:30;1.50;;;0.80;;
12675;SDS011;63820;65.654;21.944;2022-11-15T11:50:19;1.90;;;0.97;;
12675;SDS011;63820;65.654;21.944;2022-11-15T11:53:11;2.37;;;1.10;;
12675;SDS011;63820;65.654;21.944;2022-11-15T11:56:01;1.23;;;0.57;;
12675;SDS011;63820;65.654;21.944;2022-11-15T11:58:48;1.20;;;1.10;;
12675;SDS011;63820;65.654;21.944;2022-11-15T12:01:41;2.17;;;1.17;;
12675;SDS011;63820;65.654;21.944;2022-11-15T12:04:32;1.63;;;0.70;;
12675;SDS011;63820;65.654;21.944;2022-11-15T12:07:25;2.73;;;0.60;;
12675;SDS011;63820;65.654;21.944;2022-11-15T12:10:17;0.93;;;0.53;;
12675;SDS011;63820;65.654;21.944;2022-11-15T12:13:10;0.77;;;0.50;;
12675;SDS011;63820;65.654;21.944;2022-11-15T12:19:02;1.97;;;1.00;;
12675;SDS011;63820;65.654;21.944;2022-11-15T12:22:05;0.67;;;0.67;;
12675;SDS011;63820;65.654;21.944;2022-11-15T12:24:56;2.10;;;0.87;;
12675;SDS011;63820;65.654;21.944;2022-11-15T12:30:59;2.10;;;0.70;;
12675;SDS011;63820;65.654;21.944;2022-11-15T12:33:49;0.77;;;0.70;;
12675;SDS011;63820;65.654;21.944;2022-11-15T12:36:39;1.00;;;0.70;;
12675;SDS011;63820;65.654;21.944;2022-11-15T12:43:10;1.77;;;0.57;;
12675;SDS011;63820;65.654;21.944;2022-11-15T12:52:05;3.67;;;0.70;;
12675;SDS011;63820;65.654;21.944;2022-11-15T12:54:56;1.77;;;0.60;;
12675;SDS011;63820;65.654;21.944;2022-11-15T12:57:42;0.60;;;0.60;;
12675;SDS011;63820;65.654;21.944;2022-11-15T13:00:36;0.97;;;0.70;;
12675;SDS011;63820;65.654;21.944;2022-11-15T13:03:22;0.70;;;0.50;;
12675;SDS011;63820;65.654;21.944;2022-11-15T13:06:09;2.70;;;0.80;;
12675;SDS011;63820;65.654;21.944;2022-11-15T13:21:24;0.80;;;0.80;;
12675;SDS011;63820;65.654;21.944;2022-11-15T13:24:27;1.67;;;0.90;;
12675;SDS011;63820;65.654;21.944;2022-11-15T13:27:15;1.20;;;0.80;;
12675;SDS011;63820;65.654;21.944;2022-11-15T13:30:03;0.80;;;0.70;;
12675;SDS011;63820;65.654;21.944;2022-11-15T13:32:48;0.90;;;0.60;;
12675;SDS011;63820;65.654;21.944;2022-11-15T13:35:36;1.80;;;1.07;;
12675;SDS011;63820;65.654;21.944;2022-11-15T13:41:17;2.47;;;0.70;;
12675;SDS011;63820;65.654;21.944;2022-11-15T13:44:04;1.00;;;0.60;;
12675;SDS011;63820;65.654;21.944;2022-11-15T13:47:12;1.07;;;0.87;;
12675;SDS011;63820;65.654;21.944;2022-11-15T13:49:57;1.27;;;0.60;;
12675;SDS011;63820;65.654;21.944;2022-11-15T13:52:43;1.73;;;0.90;;
12675;SDS011;63820;65.654;21.944;2022-11-15T13:55:29;2.87;;;0.63;;
12675;SDS011;63820;65.654;21.944;2022-11-15T13:58:16;1.57;;;0.63;;
12675;SDS011;63820;65.654;21.944;2022-11-15T14:01:01;2.20;;;0.70;;
12675;SDS011;63820;65.654;21.944;2022-11-15T14:03:51;2.30;;;0.93;;
12675;SDS011;63820;65.654;21.944;2022-11-15T14:06:45;2.73;;;0.90;;
12675;SDS011;63820;65.654;21.944;2022-11-15T14:09:36;1.17;;;0.70;;
12675;SDS011;63820;65.654;21.944;2022-11-15T14:12:31;3.23;;;1.00;;
12675;SDS011;63820;65.654;21.944;2022-11-15T14:15:25;3.37;;;1.50;;
12675;SDS011;63820;65.654;21.944;2022-11-15T14:18:37;1.70;;;1.10;;
12675;SDS011;63820;65.654;21.944;2022-11-15T14:21:30;3.30;;;0.93;;
12675;SDS011;63820;65.654;21.944;2022-11-15T14:24:16;2.60;;;1.20;;
12675;SDS011;63820;65.654;21.944;2022-11-15T14:27:21;2.33;;;1.30;;
12675;SDS011;63820;65.654;21.944;2022-11-15T14:30:15;3.37;;;1.40;;
12675;SDS011;63820;65.654;21.944;2022-11-15T14:33:00;2.97;;;1.57;;
12675;SDS011;63820;65.654;21.944;2022-11-15T14:35:45;2.03;;;1.37;;
12675;SDS011;63820;65.654;21.944;2022-11-15T14:38:29;3.03;;;1.60;;
12675;SDS011;63820;65.654;21.944;2022-11-15T14:41:18;3.20;;;1.47;;
12675;SDS011;63820;65.654;21.944;2022-11-15T14:44:04;6.23;;;1.70;;
12675;SDS011;63820;65.654;21.944;2022-11-15T14:46:49;1.73;;;1.30;;
12675;SDS011;63820;65.654;21.944;2022-11-15T14:49:33;2.07;;;1.20;;
12675;SDS011;63820;65.654;21.944;2022-11-15T14:55:10;2.50;;;1.20;;
12675;SDS011;63820;65.654;21.944;2022-11-15T14:58:01;6.00;;;1.33;;
12675;SDS011;63820;65.654;21.944;2022-11-15T15:00:47;2.40;;;0.80;;
12675;SDS011;63820;65.654;21.944;2022-11-15T15:03:30;1.47;;;0.97;;
12675;SDS011;63820;65.654;21.944;2022-11-15T15:06:14;2.50;;;1.17;;
12675;SDS011;63820;65.654;21.944;2022-11-15T15:08:59;2.03;;;1.13;;
12675;SDS011;63820;65.654;21.944;2022-11-15T15:11:43;1.73;;;1.00;;
12675;SDS011;63820;65.654;21.944;2022-11-15T15:14:28;2.50;;;1.13;;
12675;SDS011;63820;65.654;21.944;2022-11-15T15:17:12;1.90;;;1.10;;
12675;SDS011;63820;65.654;21.944;2022-11-15T15:19:56;3.47;;;1.37;;
12675;SDS011;63820;65.654;21.944;2022-11-15T15:22:40;2.47;;;1.20;;
12675;SDS011;63820;65.654;21.944;2022-11-15T15:25:32;1.40;;;1.10;;
12675;SDS011;63820;65.654;21.944;2022-11-15T15:28:18;1.57;;;1.03;;
12675;SDS011;63820;65.654;21.944;2022-11-15T15:31:02;2.60;;;0.83;;
12675;SDS011;63820;65.654;21.944;2022-11-15T15:33:46;2.37;;;1.13;;
12675;SDS011;63820;65.654;21.944;2022-11-15T15:36:30;1.60;;;0.97;;
12675;SDS011;63820;65.654;21.944;2022-11-15T15:39:14;1.30;;;0.93;;
12675;SDS011;63820;65.654;21.944;2022-11-15T15:41:59;2.57;;;1.07;;
12675;SDS011;63820;65.654;21.944;2022-11-15T15:44:42;1.30;;;1.03;;
12675;SDS011;63820;65.654;21.944;2022-11-15T15:47:26;2.23;;;0.80;;
12675;SDS011;63820;65.654;21.944;2022-11-15T15:50:24;3.83;;;0.87;;
12675;SDS011;63820;65.654;21.944;2022-11-15T15:53:11;1.80;;;0.90;;
12675;SDS011;63820;65.654;21.944;2022-11-15T15:55:56;1.00;;;0.70;;
12675;SDS011;63820;65.654;21.944;2022-11-15T15:58:41;1.70;;;0.87;;
12675;SDS011;63820;65.654;21.944;2022-11-15T16:01:26;1.13;;;0.83;;
12675;SDS011;63820;65.654;21.944;2022-11-15T16:04:10;2.67;;;0.90;;
12675;SDS011;63820;65.654;21.944;2022-11-15T16:06:58;2.40;;;0.73;;
12675;SDS011;63820;65.654;21.944;2022-11-15T16:09:46;2.63;;;1.40;;
12675;SDS011;63820;65.654;21.944;2022-11-15T16:12:46;6.83;;;2.40;;
12675;SDS011;63820;65.654;21.944;2022-11-15T16:15:31;4.27;;;1.77;;
12675;SDS011;63820;65.654;21.944;2022-11-15T16:18:16;2.73;;;1.13;;
12675;SDS011;63820;65.654;21.944;2022-11-15T16:21:02;1.87;;;1.60;;
12675;SDS011;63820;65.654;21.944;2022-11-15T16:23:45;2.80;;;1.40;;
12675;SDS011;63820;65.654;21.944;2022-11-15T16:26:29;3.63;;;1.47;;
12675;SDS011;63820;65.654;21.944;2022-11-15T16:29:13;2.63;;;1.40;;
12675;SDS011;63820;65.654;21.944;2022-11-15T16:31:58;2.97;;;1.50;;
12675;SDS011;63820;65.654;21.944;2022-11-15T16:34:42;2.07;;;1.67;;
12675;SDS011;63820;65.654;21.944;2022-11-15T16:37:26;4.10;;;1.90;;
12675;SDS011;63820;65.654;21.944;2022-11-15T16:40:17;2.67;;;1.70;;
12675;SDS011;63820;65.654;21.944;2022-11-15T16:43:09;2.57;;;1.87;;
12675;SDS011;63820;65.654;21.944;2022-11-15T16:45:54;4.17;;;2.10;;
12675;SDS011;63820;65.654;21.944;2022-11-15T16:48:38;2.50;;;2.30;;
12675;SDS011;63820;65.654;21.944;2022-11-15T16:51:22;6.60;;;2.70;;
12675;SDS011;63820;65.654;21.944;2022-11-15T16:54:07;4.67;;;2.87;;
12675;SDS011;63820;65.654;21.944;2022-11-15T16:56:51;5.90;;;2.60;;
12675;SDS011;63820;65.654;21.944;2022-11-15T16:59:36;4.13;;;2.63;;
12675;SDS011;63820;65.654;21.944;2022-11-15T17:02:19;3.93;;;1.97;;
12675;SDS011;63820;65.654;21.944;2022-11-15T17:05:04;3.80;;;2.30;;
12675;SDS011;63820;65.654;21.944;2022-11-15T17:07:48;4.80;;;2.37;;
12675;SDS011;63820;65.654;21.944;2022-11-15T17:10:40;2.77;;;1.80;;
12675;SDS011;63820;65.654;21.944;2022-11-15T17:13:25;6.07;;;1.97;;
12675;SDS011;63820;65.654;21.944;2022-11-15T17:16:11;2.80;;;1.83;;
12675;SDS011;63820;65.654;21.944;2022-11-15T17:18:56;4.37;;;2.33;;
12675;SDS011;63820;65.654;21.944;2022-11-15T17:21:41;3.30;;;2.10;;
12675;SDS011;63820;65.654;21.944;2022-11-15T17:24:26;3.73;;;2.17;;
12675;SDS011;63820;65.654;21.944;2022-11-15T17:27:10;4.53;;;2.43;;
12675;SDS011;63820;65.654;21.944;2022-11-15T17:29:54;5.10;;;2.80;;
12675;SDS011;63820;65.654;21.944;2022-11-15T17:32:38;4.73;;;2.40;;
12675;SDS011;63820;65.654;21.944;2022-11-15T17:35:21;3.17;;;2.27;;
12675;SDS011;63820;65.654;21.944;2022-11-15T17:38:05;4.10;;;2.30;;
12675;SDS011;63820;65.654;21.944;2022-11-15T17:40:58;3.40;;;2.30;;
12675;SDS011;63820;65.654;21.944;2022-11-15T17:43:57;2.67;;;2.20;;
12675;SDS011;63820;65.654;21.944;2022-11-15T17:46:42;4.33;;;2.67;;
12675;SDS011;63820;65.654;21.944;2022-11-15T17:49:27;4.70;;;2.40;;
12675;SDS011;63820;65.654;21.944;2022-11-15T17:52:11;3.77;;;2.37;;
12675;SDS011;63820;65.654;21.944;2022-11-15T17:54:55;4.13;;;2.77;;
12675;SDS011;63820;65.654;21.944;2022-11-15T17:57:39;3.13;;;2.60;;
12675;SDS011;63820;65.654;21.944;2022-11-15T18:00:23;5.03;;;2.90;;
12675;SDS011;63820;65.654;21.944;2022-11-15T18:03:07;4.00;;;3.50;;
12675;SDS011;63820;65.654;21.944;2022-11-15T18:05:51;3.90;;;3.00;;
12675;SDS011;63820;65.654;21.944;2022-11-15T18:08:36;4.93;;;2.90;;
12675;SDS011;63820;65.654;21.944;2022-11-15T18:11:25;7.33;;;2.80;;
12675;SDS011;63820;65.654;21.944;2022-11-15T18:14:13;6.67;;;2.93;;
12675;SDS011;63820;65.654;21.944;2022-11-15T18:16:57;4.50;;;2.67;;
12675;SDS011;63820;65.654;21.944;2022-11-15T18:19:41;3.47;;;2.27;;
12675;SDS011;63820;65.654;21.944;2022-11-15T18:22:25;4.77;;;3.53;;
12675;SDS011;63820;65.654;21.944;2022-11-15T18:25:09;10.53;;;5.13;;
12675;SDS011;63820;65.654;21.944;2022-11-15T18:27:53;11.50;;;5.73;;
12675;SDS011;63820;65.654;21.944;2022-11-15T18:30:38;14.37;;;7.00;;